createdAt,value
2022-12-23T00:00:14.161Z,9.72
2022-12-23T00:03:15.996Z,9.70
2022-12-23T00:06:19.350Z,9.64
2022-12-23T00:09:21.229Z,9.63
2022-12-23T00:12:43.012Z,9.60
2022-12-23T00:15:44.746Z,9.62
2022-12-23T00:18:46.611Z,9.65
2022-12-23T00:21:48.891Z,9.63
2022-12-23T00:24:50.710Z,9.65
2022-12-23T00:28:02.685Z,9.63
2022-12-23T00:31:06.089Z,9.63
2022-12-23T00:34:07.853Z,9.63
2022-12-23T00:37:09.469Z,9.64
2022-12-23T00:40:31.943Z,9.65
2022-12-23T00:43:35.353Z,9.62
2022-12-23T00:46:37.418Z,9.62
2022-12-23T00:49:42.252Z,9.63
2022-12-23T00:52:43.977Z,9.63
2022-12-23T00:55:47.660Z,9.65
2022-12-23T00:58:50.781Z,9.63
2022-12-23T01:02:31.096Z,9.66
2022-12-23T01:05:39.025Z,9.68
2022-12-23T01:08:40.797Z,9.69
2022-12-23T01:11:42.688Z,9.71
2022-12-23T01:14:45.790Z,9.72
2022-12-23T01:17:47.619Z,9.76
2022-12-23T01:20:49.406Z,9.82
2022-12-23T01:23:51.287Z,9.87
2022-12-23T01:26:52.927Z,9.73
2022-12-23T01:29:55.945Z,9.81
2022-12-23T01:32:57.589Z,9.78
2022-12-23T01:36:00.482Z,9.81
2022-12-23T01:39:02.178Z,9.82
2022-12-23T01:42:22.546Z,9.80
2022-12-23T01:45:28.733Z,9.83
2022-12-23T01:48:30.526Z,9.82
2022-12-23T01:51:32.673Z,9.78
2022-12-23T01:54:35.193Z,9.79
2022-12-23T01:57:40.886Z,9.83
2022-12-23T02:01:04.787Z,9.82
2022-12-23T02:04:11.116Z,9.83
2022-12-23T02:07:32.402Z,9.84
2022-12-23T02:10:47.109Z,9.80
2022-12-23T02:14:18.762Z,9.84
2022-12-23T02:17:28.082Z,9.84
2022-12-23T02:21:08.031Z,9.87
2022-12-23T02:24:45.053Z,9.88
2022-12-23T02:28:04.005Z,9.90
2022-12-23T02:31:14.432Z,9.90
2022-12-23T02:34:18.866Z,9.96
2022-12-23T02:37:28.464Z,9.95
2022-12-23T02:40:39.584Z,9.95
2022-12-23T02:43:43.536Z,9.94
2022-12-23T02:46:51.206Z,9.92
2022-12-23T02:49:57.150Z,9.97
2022-12-23T02:53:04.052Z,9.95
2022-12-23T02:56:08.802Z,9.95
2022-12-23T02:59:12.626Z,9.98
2022-12-23T03:02:15.819Z,9.97
2022-12-23T03:05:25.693Z,9.94
2022-12-23T03:08:31.577Z,9.95
2022-12-23T03:11:43.797Z,10.02
2022-12-23T03:15:04.021Z,10.00
2022-12-23T03:18:17.013Z,10.00
2022-12-23T03:21:29.602Z,10.02
2022-12-23T03:24:40.607Z,10.00
2022-12-23T03:27:50.030Z,9.95
2022-12-23T03:30:57.348Z,10.00
2022-12-23T03:34:03.625Z,9.97
2022-12-23T03:37:09.914Z,9.94
2022-12-23T03:40:18.601Z,9.98
2022-12-23T03:43:24.664Z,9.93
2022-12-23T03:46:32.924Z,9.98
2022-12-23T03:49:40.303Z,9.97
2022-12-23T03:52:48.628Z,9.99
2022-12-23T03:55:55.496Z,9.96
2022-12-23T03:59:00.261Z,9.95
2022-12-23T04:02:08.766Z,9.97
2022-12-23T04:05:26.556Z,10.02
2022-12-23T04:08:32.439Z,10.01
2022-12-23T04:11:36.528Z,9.92
2022-12-23T04:14:44.929Z,9.86
2022-12-23T04:17:46.725Z,9.85
2022-12-23T04:20:49.765Z,9.75
2022-12-23T04:23:51.442Z,9.68
2022-12-23T04:26:53.168Z,9.67
2022-12-23T04:29:54.808Z,9.69
2022-12-23T04:32:56.438Z,9.72
2022-12-23T04:36:00.843Z,9.68
2022-12-23T04:39:02.466Z,9.67
2022-12-23T04:42:04.361Z,9.62
2022-12-23T04:45:07.050Z,9.58
2022-12-23T04:48:09.373Z,9.59
2022-12-23T04:51:12.623Z,9.52
2022-12-23T04:54:14.472Z,9.49
2022-12-23T04:57:16.527Z,9.48
2022-12-23T05:00:18.872Z,9.60
2022-12-23T05:03:20.881Z,9.60
2022-12-23T05:06:23.954Z,9.63
2022-12-23T05:09:25.912Z,9.59
2022-12-23T05:12:28.680Z,9.46
2022-12-23T05:15:32.931Z,9.43
2022-12-23T05:18:34.650Z,9.44
2022-12-23T05:21:37.896Z,9.43
2022-12-23T05:24:39.557Z,9.42
2022-12-23T05:27:41.220Z,9.43
2022-12-23T05:30:43.469Z,9.51
2022-12-23T05:33:45.306Z,9.57
2022-12-23T05:36:48.736Z,9.55
2022-12-23T05:39:50.445Z,9.70
2022-12-23T05:42:52.187Z,9.72
2022-12-23T05:45:54.054Z,9.93
2022-12-23T05:48:55.777Z,9.95
2022-12-23T05:51:58.835Z,10.05
2022-12-23T05:59:31.362Z,10.16
2022-12-23T06:02:33.769Z,10.17
2022-12-23T06:05:38.822Z,10.24
2022-12-23T06:08:41.659Z,10.20
2022-12-23T06:11:43.879Z,10.26
2022-12-23T06:14:47.012Z,10.29
2022-12-23T06:17:49.570Z,10.26
2022-12-23T06:20:51.273Z,10.21
2022-12-23T06:23:54.415Z,10.21
2022-12-23T06:26:57.471Z,10.20
2022-12-23T06:29:59.506Z,10.24
2022-12-23T06:33:01.215Z,10.28
2022-12-23T06:36:03.136Z,10.28
2022-12-23T06:39:06.286Z,10.31
2022-12-23T06:42:07.967Z,10.35
2022-12-23T06:45:10.737Z,10.32
2022-12-23T06:48:12.454Z,10.26
2022-12-23T06:51:14.626Z,10.25
2022-12-23T06:54:17.898Z,10.28
2022-12-23T06:57:19.618Z,10.21
2022-12-23T07:00:21.524Z,10.11
2022-12-23T07:03:23.246Z,10.08
2022-12-23T07:06:25.152Z,10.07
2022-12-23T07:09:28.288Z,10.01
2022-12-23T07:12:30.363Z,10.01
2022-12-23T07:15:32.280Z,10.03
2022-12-23T07:18:35.065Z,10.07
2022-12-23T07:21:38.646Z,10.10
2022-12-23T07:24:41.752Z,10.10
2022-12-23T07:27:43.530Z,10.10
2022-12-23T07:30:45.191Z,10.00
2022-12-23T07:33:46.893Z,9.89
2022-12-23T07:36:48.749Z,9.73
2022-12-23T07:39:51.815Z,9.66
2022-12-23T07:42:55.309Z,9.78
2022-12-23T07:46:00.442Z,9.70
2022-12-23T07:49:02.916Z,9.76
2022-12-23T07:52:04.846Z,9.80
2022-12-23T07:55:08.749Z,9.67
2022-12-23T07:58:10.452Z,9.61
2022-12-23T08:01:12.180Z,9.76
2022-12-23T08:04:14.118Z,9.91
2022-12-23T08:07:15.816Z,9.92
2022-12-23T08:10:19.313Z,9.95
2022-12-23T08:13:21.125Z,9.95
2022-12-23T08:16:22.875Z,9.97
2022-12-23T08:19:24.811Z,10.03
2022-12-23T08:22:26.648Z,10.11
2022-12-23T08:25:29.841Z,10.10
2022-12-23T08:28:33.061Z,10.12
2022-12-23T08:31:34.871Z,10.11
2022-12-23T08:34:36.733Z,10.10
2022-12-23T08:37:38.533Z,10.17
2022-12-23T08:40:41.936Z,10.14
2022-12-23T08:43:44.854Z,10.22
2022-12-23T08:46:46.620Z,10.30
2022-12-23T08:49:48.870Z,10.48
2022-12-23T08:52:50.726Z,10.59
2022-12-23T08:55:53.920Z,10.67
2022-12-23T08:58:56.636Z,10.72
2022-12-23T09:01:59.938Z,10.81
2022-12-23T09:05:01.724Z,10.81
2022-12-23T09:08:03.601Z,10.82
2022-12-23T09:11:08.884Z,10.84
2022-12-23T09:14:11.282Z,10.86
2022-12-23T09:17:13.124Z,10.84
2022-12-23T09:20:15.032Z,10.87
2022-12-23T09:23:16.850Z,10.86
2022-12-23T09:26:21.991Z,10.84
2022-12-23T09:29:23.755Z,10.84
2022-12-23T09:32:25.586Z,10.79
2022-12-23T09:35:28.910Z,10.79
2022-12-23T09:38:31.370Z,10.79
2022-12-23T09:42:01.776Z,10.79
2022-12-23T09:45:15.858Z,10.84
2022-12-23T09:48:21.647Z,10.84
2022-12-23T09:51:23.856Z,10.73
2022-12-23T09:54:29.317Z,10.79
2022-12-23T09:57:40.856Z,10.86
2022-12-23T10:00:54.669Z,10.91
2022-12-23T10:04:22.993Z,10.85
2022-12-23T10:07:35.157Z,10.79
2022-12-23T10:10:41.042Z,10.71
2022-12-23T10:13:48.778Z,10.70
2022-12-23T10:16:54.372Z,10.63
2022-12-23T10:20:00.562Z,10.72
2022-12-23T10:23:02.309Z,10.74
2022-12-23T10:26:12.382Z,10.76
2022-12-23T10:29:19.670Z,10.75
2022-12-23T10:32:28.079Z,10.79
2022-12-23T10:35:44.365Z,10.83
2022-12-23T10:38:53.826Z,10.77
2022-12-23T10:42:05.038Z,10.84
2022-12-23T10:45:24.665Z,10.76
2022-12-23T10:48:41.602Z,10.82
2022-12-23T10:51:49.466Z,10.89
2022-12-23T10:54:51.254Z,10.97
2022-12-23T10:57:57.234Z,10.85
2022-12-23T11:01:14.933Z,10.85
2022-12-23T11:04:27.648Z,10.93
2022-12-23T11:07:46.478Z,11.01
2022-12-23T11:10:48.858Z,11.03
2022-12-23T11:13:51.074Z,11.07
2022-12-23T11:16:54.240Z,11.10
2022-12-23T11:20:08.687Z,11.12
2022-12-23T11:23:25.026Z,11.13
2022-12-23T11:26:26.843Z,11.13
2022-12-23T11:29:32.841Z,11.11
2022-12-23T11:32:36.441Z,11.17
2022-12-23T11:35:39.343Z,11.20
2022-12-23T11:38:50.156Z,11.28
2022-12-23T11:41:54.980Z,11.24
2022-12-23T11:44:58.975Z,11.26
2022-12-23T11:48:06.107Z,11.24
2022-12-23T11:51:08.091Z,11.23
2022-12-23T11:54:16.454Z,11.27
2022-12-23T11:57:22.739Z,11.28
2022-12-23T12:00:28.842Z,11.26
2022-12-23T12:03:42.323Z,11.29
2022-12-23T12:06:51.162Z,11.24
2022-12-23T12:10:02.171Z,11.24
2022-12-23T12:13:06.346Z,11.24
2022-12-23T12:16:21.271Z,11.25
2022-12-23T12:19:28.172Z,11.22
2022-12-23T12:22:38.019Z,11.23
2022-12-23T12:25:44.226Z,11.29
2022-12-23T12:28:50.057Z,11.26
2022-12-23T12:31:54.504Z,11.30
2022-12-23T12:35:00.571Z,11.33
2022-12-23T12:38:10.771Z,11.41
2022-12-23T12:41:18.889Z,11.45
2022-12-23T12:44:32.047Z,11.48
2022-12-23T12:47:53.826Z,11.52
2022-12-23T12:51:03.176Z,11.57
2022-12-23T12:54:14.431Z,11.56
2022-12-23T12:57:18.904Z,11.57
2022-12-23T13:00:23.043Z,11.58
2022-12-23T13:03:46.327Z,11.56
2022-12-23T13:07:01.726Z,11.56
2022-12-23T13:10:11.743Z,11.60
2022-12-23T13:13:28.195Z,11.62
2022-12-23T13:16:41.023Z,11.63
2022-12-23T13:19:52.661Z,11.66
2022-12-23T13:23:21.095Z,11.68
2022-12-23T13:26:36.180Z,11.68
2022-12-23T13:29:58.028Z,11.71
2022-12-23T13:33:19.226Z,11.72
2022-12-23T13:36:36.609Z,11.71
2022-12-23T13:39:50.648Z,11.78
2022-12-23T13:42:55.943Z,11.80
2022-12-23T13:46:03.336Z,11.78
2022-12-23T13:49:12.452Z,11.80
2022-12-23T13:52:21.335Z,11.83
2022-12-23T13:55:47.147Z,11.88
2022-12-23T13:58:52.143Z,11.91
2022-12-23T14:01:53.963Z,11.90
2022-12-23T14:05:00.106Z,11.94
2022-12-23T14:08:05.264Z,11.98
2022-12-23T14:11:17.716Z,12.04
2022-12-23T14:14:23.169Z,12.02
2022-12-23T14:17:35.042Z,12.05
2022-12-23T14:20:48.323Z,12.08
2022-12-23T14:24:04.710Z,12.09
2022-12-23T14:27:31.627Z,12.12
2022-12-23T14:30:35.891Z,12.11
2022-12-23T14:33:38.101Z,12.13
2022-12-23T14:36:39.895Z,12.14
2022-12-23T14:39:42.048Z,12.14
2022-12-23T14:42:45.215Z,12.15
2022-12-23T14:45:47.707Z,12.17
2022-12-23T14:52:59.047Z,12.23
2022-12-23T14:56:21.818Z,12.24
2022-12-23T14:59:33.551Z,12.23
2022-12-23T15:02:37.400Z,12.30
2022-12-23T15:05:40.394Z,12.32
2022-12-23T15:08:43.546Z,12.30
2022-12-23T15:11:45.337Z,12.29
2022-12-23T15:14:52.400Z,12.31
2022-12-23T15:18:01.633Z,12.31
2022-12-23T15:21:10.134Z,12.32
2022-12-23T15:24:16.329Z,12.31
2022-12-23T15:27:28.715Z,12.32
2022-12-23T15:30:37.038Z,12.35
2022-12-23T15:37:00.823Z,12.35
2022-12-23T15:40:11.878Z,12.35
2022-12-23T15:43:17.737Z,12.31
2022-12-23T15:46:29.390Z,12.36
2022-12-23T15:49:31.918Z,12.37
2022-12-23T15:52:33.817Z,12.38
2022-12-23T15:55:39.309Z,12.33
2022-12-23T15:58:42.730Z,12.38
2022-12-23T16:01:45.932Z,12.39
2022-12-23T16:04:53.220Z,12.42
2022-12-23T16:08:11.426Z,12.39
2022-12-23T16:11:15.391Z,12.39
2022-12-23T16:14:36.636Z,12.39
2022-12-23T16:17:40.066Z,12.39
2022-12-23T16:20:45.032Z,12.38
2022-12-23T16:23:50.476Z,12.40
2022-12-23T16:26:54.326Z,12.36
2022-12-23T16:29:58.327Z,12.38
2022-12-23T16:33:03.798Z,12.43
2022-12-23T16:36:19.559Z,12.43
2022-12-23T16:39:23.102Z,12.44
2022-12-23T16:42:24.845Z,12.43
2022-12-23T16:45:26.683Z,12.44
2022-12-23T16:48:32.933Z,12.46
2022-12-23T16:51:35.900Z,12.46
2022-12-23T16:54:42.424Z,12.45
2022-12-23T16:57:44.924Z,12.43
2022-12-23T17:00:48.115Z,12.44
2022-12-23T17:03:51.933Z,12.47
2022-12-23T17:06:55.256Z,12.52
2022-12-23T17:09:56.980Z,12.54
2022-12-23T17:12:58.721Z,12.55
2022-12-23T17:16:00.449Z,12.58
2022-12-23T17:19:05.422Z,12.47
2022-12-23T17:22:09.698Z,12.39
2022-12-23T17:25:12.765Z,12.39
2022-12-23T17:28:14.813Z,12.33
2022-12-23T17:31:26.254Z,12.36
2022-12-23T17:34:29.891Z,12.43
2022-12-23T17:37:31.607Z,12.51
2022-12-23T17:40:33.521Z,12.53
2022-12-23T17:43:35.224Z,12.58
2022-12-23T17:46:37.060Z,12.59
2022-12-23T17:49:40.111Z,12.56
2022-12-23T17:52:41.848Z,12.67
2022-12-23T17:55:44.179Z,12.60
2022-12-23T17:58:49.052Z,12.62
2022-12-23T18:01:50.958Z,12.61
2022-12-23T18:04:54.137Z,12.57
2022-12-23T18:07:58.249Z,12.70
2022-12-23T18:11:00.042Z,12.65
2022-12-23T18:14:03.211Z,12.65
2022-12-23T18:17:05.094Z,13.02
2022-12-23T18:20:15.048Z,13.04
2022-12-23T18:23:22.108Z,13.08
2022-12-23T18:26:24.996Z,13.07
2022-12-23T18:29:26.738Z,13.08
2022-12-23T18:32:29.032Z,13.13
2022-12-23T18:35:34.791Z,12.90
2022-12-23T18:38:36.571Z,13.08
2022-12-23T18:41:38.222Z,12.94
2022-12-23T18:44:40.182Z,12.77
2022-12-23T18:47:41.803Z,12.73
2022-12-23T18:50:46.704Z,12.68
2022-12-23T18:53:49.020Z,12.57
2022-12-23T18:56:50.808Z,12.62
2022-12-23T18:59:52.513Z,12.56
2022-12-23T19:02:54.985Z,12.63
2022-12-23T19:06:06.414Z,12.73
2022-12-23T19:09:08.661Z,12.58
2022-12-23T19:12:10.353Z,12.48
2022-12-23T19:15:13.392Z,12.42
2022-12-23T19:18:16.331Z,12.35
2022-12-23T19:21:19.527Z,12.30
2022-12-23T19:24:21.612Z,12.21
2022-12-23T19:27:23.390Z,12.11
2022-12-23T19:30:25.328Z,12.09
2022-12-23T19:33:27.065Z,12.05
2022-12-23T19:36:30.817Z,12.13
2022-12-23T19:39:32.781Z,12.12
2022-12-23T19:42:37.021Z,12.11
2022-12-23T19:45:38.811Z,12.17
2022-12-23T19:48:40.581Z,12.14
2022-12-23T19:51:43.627Z,12.10
2022-12-23T19:54:45.368Z,12.09
2022-12-23T19:57:47.232Z,12.19
2022-12-23T20:00:49.138Z,12.11
2022-12-23T20:03:52.316Z,11.78
2022-12-23T20:06:56.109Z,11.59
2022-12-23T20:09:57.844Z,11.42
2022-12-23T20:12:59.567Z,11.31
2022-12-23T20:16:01.834Z,11.22
2022-12-23T20:19:04.792Z,11.20
2022-12-23T20:22:07.970Z,11.23
2022-12-23T20:25:09.953Z,11.25
2022-12-23T20:28:12.088Z,11.22
2022-12-23T20:31:17.276Z,11.10
2022-12-23T20:34:19.064Z,11.04
2022-12-23T20:37:22.144Z,11.04
2022-12-23T20:40:24.373Z,11.02
2022-12-23T20:43:26.154Z,10.95
2022-12-23T20:46:27.922Z,10.89
2022-12-23T20:49:29.778Z,10.80
2022-12-23T20:52:33.400Z,10.72
2022-12-23T20:55:35.048Z,10.69
2022-12-23T20:58:56.123Z,10.76
2022-12-23T21:01:59.204Z,10.72
2022-12-23T21:05:01.415Z,10.75
2022-12-23T21:08:04.949Z,10.73
2022-12-23T21:11:07.620Z,10.64
2022-12-23T21:14:09.647Z,10.70
2022-12-23T21:17:11.662Z,10.83
2022-12-23T21:20:14.081Z,10.86
2022-12-23T21:23:17.186Z,10.89
2022-12-23T21:26:21.478Z,10.84
2022-12-23T21:29:23.471Z,10.80
2022-12-23T21:32:25.543Z,10.87
2022-12-23T21:35:27.333Z,10.86
2022-12-23T21:38:32.835Z,10.83
2022-12-23T21:41:37.489Z,10.84
2022-12-23T21:44:39.271Z,10.82
2022-12-23T21:47:41.039Z,10.84
2022-12-23T21:50:43.709Z,10.80
2022-12-23T21:53:48.995Z,10.87
2022-12-23T21:56:50.703Z,10.97
2022-12-23T21:59:52.762Z,11.14
2022-12-23T22:02:54.521Z,11.25
2022-12-23T22:06:08.447Z,11.30
2022-12-23T22:09:15.586Z,11.56
2022-12-23T22:12:17.324Z,11.50
2022-12-23T22:15:19.298Z,11.59
2022-12-23T22:18:21.195Z,11.56
2022-12-23T22:21:24.468Z,11.53
2022-12-23T22:24:27.525Z,11.52
2022-12-23T22:27:29.183Z,11.34
2022-12-23T22:30:31.068Z,11.24
2022-12-23T22:33:33.613Z,11.09
2022-12-23T22:36:35.718Z,11.20
2022-12-23T22:39:39.033Z,11.25
2022-12-23T22:42:40.774Z,11.32
2022-12-23T22:45:42.633Z,11.18
2022-12-23T22:48:44.583Z,11.10
2022-12-23T22:51:46.560Z,11.19
2022-12-23T22:54:49.677Z,11.15
2022-12-23T22:57:51.387Z,11.27
2022-12-23T23:00:53.330Z,11.17
2022-12-23T23:03:57.505Z,11.08
2022-12-23T23:06:59.267Z,11.30
2022-12-23T23:10:02.498Z,11.25
2022-12-23T23:13:04.333Z,11.19
2022-12-23T23:16:06.805Z,11.07
2022-12-23T23:19:09.126Z,11.11
2022-12-23T23:22:10.903Z,11.01
2022-12-23T23:25:14.184Z,11.05
2022-12-23T23:28:15.922Z,11.02
2022-12-23T23:31:41.152Z,11.04
2022-12-23T23:34:40.616Z,10.87
2022-12-23T23:37:42.305Z,10.76
2022-12-23T23:40:48.461Z,10.81
2022-12-23T23:43:50.183Z,10.83
2022-12-23T23:46:51.990Z,10.70
2022-12-23T23:49:53.807Z,10.70
2022-12-23T23:52:55.552Z,10.68
2022-12-23T23:56:03.261Z,10.64
2022-12-23T23:59:05.188Z,10.60
